CCA1328 ZBAA-ZGGG
Flight info
| Callsign | CCA1328 |
|---|---|
| Flight time | N/A |
| Altitude | 36100 |
| Route | RUSDO9Z RUSDO W45 LYA/K0895S1130 W45 ML/K0904S1100 W45 NUPTI/K0904S1130 W45 VESUX/K0896S1160 W45 IKAVO IKAVO8 |
| Aircraft | B77W/H-SDE1E2E3FGHIJ2J3J4J5M1RWXY/LB1D1 |
Departure
| Time | N/A |
|---|---|
| Airport | Beijing Capital International Airport (ZBAA) |
Arrival
| Time | 2026-04-27 06:17 |
|---|---|
| Airport | Guangzhou Baiyun International Airport (ZGGG) |
| Time | Latitude | Longitude | Altitude | Speed | Heading |
|---|---|---|---|---|---|
| 2026-04-27 03:59 | 39.24836 | 114.18364 | 36163 ft | 413 kts | 240° |
| 2026-04-27 03:59 | 39.22783 | 114.15629 | 36188 ft | 428 kts | 231° |
| 2026-04-27 03:59 | 39.20261 | 114.13296 | 36150 ft | 445 kts | 221° |
| 2026-04-27 03:59 | 39.17452 | 114.11576 | 36190 ft | 458 kts | 211° |
| 2026-04-27 04:00 | 39.14372 | 114.10401 | 36167 ft | 463 kts | 207° |
| 2026-04-27 04:00 | 39.08104 | 114.08292 | 36170 ft | 471 kts | 207° |
| 2026-04-27 04:01 | 39.01781 | 114.06123 | 36152 ft | 464 kts | 207° |
| 2026-04-27 04:01 | 38.95635 | 114.03982 | 36157 ft | 460 kts | 208° |
| 2026-04-27 04:02 | 38.89378 | 114.01780 | 36142 ft | 466 kts | 208° |
| 2026-04-27 04:02 | 38.83125 | 113.99580 | 36141 ft | 463 kts | 208° |
| 2026-04-27 04:03 | 38.76906 | 113.97389 | 36146 ft | 462 kts | 208° |
| 2026-04-27 04:03 | 38.70747 | 113.95222 | 36143 ft | 461 kts | 208° |
| 2026-04-27 04:04 | 38.64489 | 113.93020 | 36146 ft | 461 kts | 208° |
| 2026-04-27 04:04 | 38.58288 | 113.90839 | 36136 ft | 465 kts | 208° |
| 2026-04-27 04:05 | 38.52061 | 113.88655 | 36152 ft | 466 kts | 209° |
| 2026-04-27 04:05 | 38.45857 | 113.86487 | 36130 ft | 457 kts | 209° |
| 2026-04-27 04:06 | 38.39726 | 113.84341 | 36128 ft | 461 kts | 209° |
| 2026-04-27 04:06 | 38.33556 | 113.82186 | 36137 ft | 460 kts | 209° |
| 2026-04-27 04:07 | 38.24818 | 113.79163 | 36129 ft | 459 kts | 209° |
| 2026-04-27 04:07 | 38.18636 | 113.77029 | 36137 ft | 460 kts | 209° |
| 2026-04-27 04:08 | 38.12608 | 113.74954 | 36136 ft | 455 kts | 210° |
| 2026-04-27 04:08 | 38.06480 | 113.72845 | 36140 ft | 454 kts | 210° |
| 2026-04-27 04:09 | 38.00337 | 113.70730 | 36143 ft | 458 kts | 210° |
| 2026-04-27 04:09 | 37.94233 | 113.68639 | 36152 ft | 456 kts | 209° |
| 2026-04-27 04:10 | 37.88085 | 113.66536 | 36467 ft | 454 kts | 210° |
| 2026-04-27 04:10 | 37.85050 | 113.65499 | 35876 ft | 454 kts | 210° |
| 2026-04-27 04:10 | 37.81998 | 113.64455 | 36195 ft | 456 kts | 209° |
| 2026-04-27 04:11 | 37.75919 | 113.62386 | 36153 ft | 450 kts | 210° |
| 2026-04-27 04:11 | 37.69793 | 113.60294 | 36157 ft | 454 kts | 210° |
| 2026-04-27 04:12 | 37.63671 | 113.58212 | 36164 ft | 455 kts | 209° |
| 2026-04-27 04:12 | 37.57601 | 113.56155 | 36163 ft | 452 kts | 209° |
| 2026-04-27 04:13 | 37.51469 | 113.54073 | 36171 ft | 457 kts | 209° |
| 2026-04-27 04:13 | 37.45354 | 113.52010 | 36172 ft | 451 kts | 209° |
| 2026-04-27 04:14 | 37.39285 | 113.49956 | 36169 ft | 455 kts | 209° |
| 2026-04-27 04:14 | 37.33223 | 113.47918 | 36174 ft | 449 kts | 209° |
| 2026-04-27 04:15 | 37.27135 | 113.45864 | 36173 ft | 454 kts | 209° |
| 2026-04-27 04:15 | 37.21230 | 113.43883 | 36174 ft | 450 kts | 209° |
| 2026-04-27 04:16 | 37.16002 | 113.42125 | 36173 ft | 456 kts | 209° |
| 2026-04-27 04:16 | 37.10314 | 113.40224 | 36178 ft | 451 kts | 208° |
| 2026-04-27 04:17 | 37.04274 | 113.38203 | 36171 ft | 452 kts | 208° |
| 2026-04-27 04:17 | 36.98201 | 113.36174 | 36175 ft | 452 kts | 209° |
| 2026-04-27 04:18 | 36.92150 | 113.34154 | 36210 ft | 456 kts | 208° |
| 2026-04-27 04:18 | 36.86050 | 113.32127 | 36206 ft | 456 kts | 208° |
| 2026-04-27 04:19 | 36.79904 | 113.30084 | 36200 ft | 455 kts | 207° |
| 2026-04-27 04:19 | 36.73791 | 113.28057 | 36212 ft | 456 kts | 208° |
| 2026-04-27 04:20 | 36.67662 | 113.26030 | 36197 ft | 453 kts | 208° |
| 2026-04-27 04:20 | 36.61510 | 113.23994 | 36203 ft | 456 kts | 207° |
| 2026-04-27 04:21 | 36.55397 | 113.21976 | 36191 ft | 456 kts | 207° |
| 2026-04-27 04:21 | 36.49244 | 113.19949 | 36174 ft | 456 kts | 207° |
| 2026-04-27 04:22 | 36.43080 | 113.17916 | 36173 ft | 464 kts | 207° |
| 2026-04-27 04:22 | 36.36845 | 113.15873 | 36170 ft | 460 kts | 206° |
| 2026-04-27 04:23 | 36.30691 | 113.13856 | 36172 ft | 459 kts | 206° |
| 2026-04-27 04:23 | 36.24489 | 113.11793 | 36155 ft | 457 kts | 210° |
| 2026-04-27 04:24 | 36.18662 | 113.08900 | 36160 ft | 449 kts | 214° |
| 2026-04-27 04:24 | 36.12984 | 113.05928 | 36163 ft | 445 kts | 214° |
| 2026-04-27 04:25 | 36.07232 | 113.02919 | 36166 ft | 447 kts | 213° |
| 2026-04-27 04:25 | 36.01534 | 112.99953 | 36171 ft | 447 kts | 213° |
| 2026-04-27 04:26 | 35.95782 | 112.96961 | 36167 ft | 448 kts | 213° |
| 2026-04-27 04:26 | 35.90029 | 112.93974 | 36162 ft | 450 kts | 213° |
| 2026-04-27 04:27 | 35.84227 | 112.90971 | 36166 ft | 449 kts | 213° |
| 2026-04-27 04:27 | 35.78459 | 112.87988 | 36145 ft | 449 kts | 213° |
| 2026-04-27 04:28 | 35.72709 | 112.84993 | 36143 ft | 451 kts | 213° |
| 2026-04-27 04:28 | 35.66924 | 112.81983 | 36148 ft | 450 kts | 213° |
| 2026-04-27 04:29 | 35.61169 | 112.78990 | 36141 ft | 452 kts | 213° |
| 2026-04-27 04:29 | 35.55366 | 112.75973 | 36133 ft | 452 kts | 213° |
| 2026-04-27 04:30 | 35.49572 | 112.72950 | 36135 ft | 453 kts | 213° |
| 2026-04-27 04:30 | 35.43790 | 112.69940 | 36134 ft | 450 kts | 213° |
| 2026-04-27 04:31 | 35.37987 | 112.66922 | 36129 ft | 454 kts | 213° |
| 2026-04-27 04:31 | 35.32220 | 112.63930 | 36130 ft | 452 kts | 213° |
| 2026-04-27 04:32 | 35.26380 | 112.60902 | 36128 ft | 454 kts | 213° |
| 2026-04-27 04:32 | 35.20576 | 112.57901 | 36116 ft | 452 kts | 212° |
| 2026-04-27 04:33 | 35.14763 | 112.54918 | 36090 ft | 456 kts | 212° |
| 2026-04-27 04:33 | 35.08852 | 112.52196 | 36090 ft | 456 kts | 207° |
| 2026-04-27 04:34 | 35.02702 | 112.49930 | 36055 ft | 466 kts | 206° |
| 2026-04-27 04:34 | 34.96493 | 112.47661 | 36052 ft | 461 kts | 207° |
| 2026-04-27 04:35 | 34.90334 | 112.45404 | 36054 ft | 464 kts | 206° |
| 2026-04-27 04:35 | 34.84091 | 112.43121 | 36047 ft | 467 kts | 206° |
| 2026-04-27 04:36 | 34.77896 | 112.40861 | 36046 ft | 464 kts | 206° |
| 2026-04-27 04:36 | 34.71389 | 112.39786 | 36036 ft | 488 kts | 188° |
| 2026-04-27 04:37 | 34.64529 | 112.40304 | 36048 ft | 492 kts | 185° |
| 2026-04-27 04:37 | 34.57709 | 112.40901 | 36043 ft | 493 kts | 185° |
| 2026-04-27 04:38 | 34.50908 | 112.41491 | 36046 ft | 493 kts | 185° |
| 2026-04-27 04:38 | 34.44009 | 112.42084 | 36037 ft | 494 kts | 185° |
| 2026-04-27 04:39 | 34.37206 | 112.42670 | 36062 ft | 494 kts | 185° |
| 2026-04-27 04:39 | 34.30344 | 112.43257 | 36047 ft | 490 kts | 185° |
| 2026-04-27 04:40 | 34.23481 | 112.43840 | 36059 ft | 495 kts | 185° |
| 2026-04-27 04:40 | 34.16656 | 112.44423 | 36060 ft | 493 kts | 185° |
| 2026-04-27 04:41 | 34.09845 | 112.45003 | 36067 ft | 491 kts | 185° |
| 2026-04-27 04:41 | 34.02981 | 112.45583 | 36068 ft | 494 kts | 184° |
| 2026-04-27 04:42 | 33.96180 | 112.46160 | 36074 ft | 492 kts | 185° |
| 2026-04-27 04:42 | 33.89291 | 112.46742 | 36060 ft | 493 kts | 184° |
| 2026-04-27 04:43 | 33.82437 | 112.47321 | 36054 ft | 492 kts | 184° |
| 2026-04-27 04:43 | 33.75624 | 112.47896 | 36041 ft | 490 kts | 184° |
| 2026-04-27 04:44 | 33.68760 | 112.48473 | 36036 ft | 490 kts | 184° |
| 2026-04-27 04:44 | 33.61964 | 112.49046 | 36035 ft | 493 kts | 184° |
| 2026-04-27 04:45 | 33.55143 | 112.49630 | 36039 ft | 486 kts | 184° |
| 2026-04-27 04:45 | 33.48378 | 112.50204 | 36032 ft | 492 kts | 184° |
| 2026-04-27 04:46 | 33.41549 | 112.50786 | 36016 ft | 491 kts | 184° |
| 2026-04-27 04:46 | 33.34761 | 112.51363 | 36002 ft | 488 kts | 184° |
| 2026-04-27 04:47 | 33.27936 | 112.51941 | 36014 ft | 489 kts | 184° |
| 2026-04-27 04:47 | 33.21132 | 112.52515 | 36003 ft | 492 kts | 184° |
| 2026-04-27 04:48 | 33.14301 | 112.53094 | 36003 ft | 489 kts | 183° |
| 2026-04-27 04:48 | 33.07542 | 112.53664 | 35999 ft | 490 kts | 184° |
| 2026-04-27 04:49 | 33.00723 | 112.54238 | 35998 ft | 488 kts | 183° |
| 2026-04-27 04:49 | 32.93950 | 112.54705 | 35998 ft | 483 kts | 189° |
| 2026-04-27 04:50 | 32.87458 | 112.53532 | 35999 ft | 468 kts | 203° |
| 2026-04-27 04:50 | 32.81169 | 112.51376 | 35995 ft | 469 kts | 203° |
| 2026-04-27 04:51 | 32.74834 | 112.49305 | 35996 ft | 469 kts | 202° |
| 2026-04-27 04:51 | 32.68519 | 112.47253 | 35997 ft | 469 kts | 202° |
| 2026-04-27 04:52 | 32.62205 | 112.45203 | 35993 ft | 468 kts | 202° |
| 2026-04-27 04:52 | 32.55916 | 112.43160 | 35997 ft | 468 kts | 202° |
| 2026-04-27 04:53 | 32.49627 | 112.41121 | 35995 ft | 470 kts | 202° |
| 2026-04-27 04:53 | 32.43318 | 112.39076 | 35997 ft | 470 kts | 202° |
| 2026-04-27 04:54 | 32.37018 | 112.37039 | 36004 ft | 468 kts | 202° |
| 2026-04-27 04:54 | 32.30724 | 112.35006 | 35999 ft | 468 kts | 202° |
| 2026-04-27 04:55 | 32.24403 | 112.32966 | 36015 ft | 472 kts | 201° |
| 2026-04-27 04:55 | 32.18081 | 112.30930 | 36011 ft | 468 kts | 201° |
| 2026-04-27 04:56 | 32.11775 | 112.28901 | 36015 ft | 471 kts | 201° |
| 2026-04-27 04:56 | 32.05406 | 112.27100 | 36017 ft | 471 kts | 196° |
| 2026-04-27 04:57 | 31.98887 | 112.25772 | 36015 ft | 478 kts | 195° |
| 2026-04-27 04:57 | 31.92381 | 112.24459 | 36008 ft | 473 kts | 195° |
| 2026-04-27 04:58 | 31.85984 | 112.23164 | 36000 ft | 477 kts | 196° |
| 2026-04-27 04:58 | 31.79429 | 112.21839 | 36004 ft | 476 kts | 195° |
| 2026-04-27 04:59 | 31.72918 | 112.20524 | 36006 ft | 477 kts | 195° |
| 2026-04-27 04:59 | 31.66361 | 112.19200 | 36007 ft | 479 kts | 195° |
| 2026-04-27 05:00 | 31.59854 | 112.17890 | 36007 ft | 474 kts | 195° |
| 2026-04-27 05:00 | 31.53290 | 112.16567 | 36011 ft | 479 kts | 195° |
| 2026-04-27 05:01 | 31.46725 | 112.15248 | 36011 ft | 478 kts | 195° |
| 2026-04-27 05:01 | 31.40175 | 112.13934 | 36007 ft | 477 kts | 195° |
| 2026-04-27 05:02 | 31.33639 | 112.12365 | 36017 ft | 477 kts | 197° |
| 2026-04-27 05:03 | 31.23895 | 112.09946 | 36032 ft | 477 kts | 197° |
| 2026-04-27 05:03 | 31.17394 | 112.08347 | 36031 ft | 477 kts | 197° |
| 2026-04-27 05:04 | 31.10906 | 112.06757 | 36036 ft | 476 kts | 197° |
| 2026-04-27 05:04 | 31.04408 | 112.05169 | 36036 ft | 475 kts | 197° |
| 2026-04-27 05:05 | 30.97922 | 112.03586 | 36039 ft | 479 kts | 197° |
| 2026-04-27 05:05 | 30.91383 | 112.01995 | 36034 ft | 477 kts | 197° |
| 2026-04-27 05:06 | 30.84870 | 112.00412 | 36030 ft | 477 kts | 196° |
| 2026-04-27 05:06 | 30.78353 | 111.98830 | 36025 ft | 479 kts | 196° |
| 2026-04-27 05:07 | 30.71888 | 111.97264 | 36022 ft | 477 kts | 196° |
| 2026-04-27 05:07 | 30.65344 | 111.95682 | 36019 ft | 478 kts | 196° |
| 2026-04-27 05:08 | 30.58843 | 111.94121 | 36021 ft | 477 kts | 196° |
| 2026-04-27 05:08 | 30.52335 | 111.92558 | 36018 ft | 477 kts | 196° |
| 2026-04-27 05:09 | 30.45832 | 111.91000 | 36014 ft | 479 kts | 196° |
| 2026-04-27 05:09 | 30.39334 | 111.89445 | 36013 ft | 476 kts | 196° |
| 2026-04-27 05:10 | 30.32822 | 111.87888 | 36007 ft | 479 kts | 196° |
| 2026-04-27 05:10 | 30.26290 | 111.86329 | 36003 ft | 477 kts | 197° |
| 2026-04-27 05:11 | 30.19776 | 111.84776 | 35999 ft | 477 kts | 196° |
| 2026-04-27 05:11 | 30.13290 | 111.83232 | 35994 ft | 477 kts | 196° |
| 2026-04-27 05:12 | 30.06783 | 111.81686 | 35994 ft | 476 kts | 196° |
| 2026-04-27 05:12 | 30.00241 | 111.80132 | 35992 ft | 477 kts | 196° |
| 2026-04-27 05:13 | 29.93774 | 111.78598 | 35986 ft | 479 kts | 196° |
| 2026-04-27 05:13 | 29.87435 | 111.77097 | 35984 ft | 477 kts | 196° |
| 2026-04-27 05:14 | 29.80876 | 111.75546 | 35988 ft | 478 kts | 196° |
| 2026-04-27 05:14 | 29.74379 | 111.74011 | 35983 ft | 478 kts | 196° |
| 2026-04-27 05:15 | 29.67865 | 111.72475 | 35979 ft | 477 kts | 197° |
| 2026-04-27 05:15 | 29.61358 | 111.70943 | 35980 ft | 478 kts | 196° |
| 2026-04-27 05:16 | 29.54848 | 111.69411 | 35983 ft | 477 kts | 196° |
| 2026-04-27 05:16 | 29.48320 | 111.67877 | 35981 ft | 479 kts | 196° |
| 2026-04-27 05:17 | 29.41785 | 111.66344 | 35982 ft | 477 kts | 196° |
| 2026-04-27 05:17 | 29.35187 | 111.64900 | 35978 ft | 484 kts | 190° |
| 2026-04-27 05:18 | 29.28465 | 111.64454 | 35983 ft | 486 kts | 187° |
| 2026-04-27 05:18 | 29.21709 | 111.64103 | 35979 ft | 484 kts | 187° |
| 2026-04-27 05:19 | 29.15008 | 111.63752 | 35980 ft | 485 kts | 187° |
| 2026-04-27 05:19 | 29.08217 | 111.63395 | 35981 ft | 485 kts | 187° |
| 2026-04-27 05:20 | 29.01482 | 111.63041 | 35976 ft | 484 kts | 187° |
| 2026-04-27 05:20 | 28.94779 | 111.62688 | 35978 ft | 485 kts | 187° |
| 2026-04-27 05:21 | 28.88021 | 111.62333 | 35975 ft | 484 kts | 187° |
| 2026-04-27 05:21 | 28.81472 | 111.61887 | 35980 ft | 481 kts | 190° |
| 2026-04-27 05:22 | 28.74823 | 111.61131 | 35977 ft | 480 kts | 190° |
| 2026-04-27 05:22 | 28.68151 | 111.60384 | 35972 ft | 480 kts | 190° |
| 2026-04-27 05:23 | 28.61490 | 111.59650 | 35970 ft | 478 kts | 190° |
| 2026-04-27 05:23 | 28.54822 | 111.58922 | 35972 ft | 478 kts | 190° |
| 2026-04-27 05:24 | 28.48226 | 111.58206 | 35970 ft | 477 kts | 190° |
| 2026-04-27 05:24 | 28.41592 | 111.57489 | 35971 ft | 478 kts | 190° |
| 2026-04-27 05:25 | 28.34980 | 111.56788 | 35982 ft | 476 kts | 189° |
| 2026-04-27 05:25 | 28.28415 | 111.56092 | 35987 ft | 475 kts | 190° |
| 2026-04-27 05:26 | 28.21815 | 111.55394 | 35994 ft | 475 kts | 189° |
| 2026-04-27 05:26 | 28.15241 | 111.54699 | 35998 ft | 473 kts | 190° |
| 2026-04-27 05:27 | 28.08708 | 111.54009 | 35995 ft | 473 kts | 190° |
| 2026-04-27 05:27 | 28.02153 | 111.53319 | 35993 ft | 471 kts | 189° |
| 2026-04-27 05:28 | 27.95602 | 111.52629 | 36002 ft | 471 kts | 189° |
| 2026-04-27 05:28 | 27.89081 | 111.51945 | 36000 ft | 473 kts | 189° |
| 2026-04-27 05:29 | 27.82483 | 111.51254 | 35998 ft | 472 kts | 189° |
| 2026-04-27 05:29 | 27.75909 | 111.50566 | 36003 ft | 473 kts | 189° |
| 2026-04-27 05:30 | 27.69343 | 111.49880 | 36008 ft | 473 kts | 189° |
| 2026-04-27 05:30 | 27.62741 | 111.49191 | 36007 ft | 475 kts | 189° |
| 2026-04-27 05:31 | 27.56145 | 111.48503 | 36008 ft | 474 kts | 189° |
| 2026-04-27 05:31 | 27.49548 | 111.47817 | 36005 ft | 475 kts | 189° |
| 2026-04-27 05:32 | 27.42934 | 111.47128 | 36004 ft | 476 kts | 189° |
| 2026-04-27 05:32 | 27.36357 | 111.46446 | 35997 ft | 474 kts | 189° |
| 2026-04-27 05:33 | 27.29758 | 111.45760 | 35992 ft | 478 kts | 189° |
| 2026-04-27 05:33 | 27.23134 | 111.45074 | 35990 ft | 476 kts | 189° |
| 2026-04-27 05:34 | 27.16480 | 111.44385 | 35986 ft | 477 kts | 189° |
| 2026-04-27 05:34 | 27.09869 | 111.43701 | 35988 ft | 479 kts | 189° |
| 2026-04-27 05:35 | 27.03279 | 111.43026 | 35984 ft | 479 kts | 187° |
| 2026-04-27 05:35 | 26.96549 | 111.43625 | 35980 ft | 488 kts | 170° |
| 2026-04-27 05:36 | 26.90226 | 111.46523 | 35978 ft | 496 kts | 152° |
| 2026-04-27 05:36 | 26.84924 | 111.51540 | 35979 ft | 504 kts | 133° |
| 2026-04-27 05:37 | 26.80604 | 111.57772 | 35989 ft | 507 kts | 130° |
| 2026-04-27 05:37 | 26.76306 | 111.64068 | 35974 ft | 508 kts | 130° |
| 2026-04-27 05:38 | 26.72014 | 111.70306 | 35982 ft | 507 kts | 130° |
| 2026-04-27 05:38 | 26.67679 | 111.76576 | 35986 ft | 507 kts | 131° |
| 2026-04-27 05:39 | 26.63365 | 111.82796 | 35991 ft | 506 kts | 131° |
| 2026-04-27 05:39 | 26.59018 | 111.89047 | 35984 ft | 509 kts | 131° |
| 2026-04-27 05:40 | 26.54693 | 111.95255 | 36000 ft | 509 kts | 131° |
| 2026-04-27 05:40 | 26.50326 | 112.01510 | 36002 ft | 509 kts | 131° |
| 2026-04-27 05:41 | 26.45974 | 112.07738 | 35999 ft | 510 kts | 131° |
| 2026-04-27 05:41 | 26.41634 | 112.13937 | 36010 ft | 508 kts | 131° |
| 2026-04-27 05:42 | 26.37281 | 112.20146 | 36013 ft | 511 kts | 131° |
| 2026-04-27 05:42 | 26.32900 | 112.26386 | 35999 ft | 509 kts | 131° |
| 2026-04-27 05:43 | 26.28517 | 112.32621 | 36006 ft | 511 kts | 131° |
| 2026-04-27 05:43 | 26.24166 | 112.38802 | 36014 ft | 511 kts | 131° |
| 2026-04-27 05:44 | 26.19774 | 112.45033 | 36002 ft | 511 kts | 132° |
| 2026-04-27 05:44 | 26.15383 | 112.51253 | 36014 ft | 510 kts | 132° |
| 2026-04-27 05:45 | 26.10998 | 112.57456 | 36016 ft | 511 kts | 132° |
| 2026-04-27 05:45 | 26.06584 | 112.63692 | 36017 ft | 512 kts | 132° |
| 2026-04-27 05:46 | 26.02180 | 112.69906 | 36007 ft | 511 kts | 132° |
| 2026-04-27 05:46 | 25.98009 | 112.75782 | 35996 ft | 512 kts | 132° |
| 2026-04-27 05:47 | 25.93592 | 112.81999 | 35985 ft | 512 kts | 132° |
| 2026-04-27 05:47 | 25.89182 | 112.88195 | 35990 ft | 511 kts | 132° |
| 2026-04-27 05:48 | 25.84837 | 112.94293 | 35992 ft | 512 kts | 132° |
| 2026-04-27 05:48 | 25.79899 | 112.99908 | 35984 ft | 502 kts | 147° |
| 2026-04-27 05:49 | 25.73914 | 113.03702 | 36014 ft | 491 kts | 164° |
| 2026-04-27 05:49 | 25.67382 | 113.05514 | 36029 ft | 480 kts | 179° |
| 2026-04-27 05:50 | 25.60772 | 113.05653 | 36039 ft | 474 kts | 186° |
| 2026-04-27 05:50 | 25.54143 | 113.05540 | 36033 ft | 473 kts | 186° |
| 2026-04-27 05:51 | 25.47582 | 113.05402 | 36028 ft | 472 kts | 186° |
| 2026-04-27 05:51 | 25.40967 | 113.05251 | 36027 ft | 472 kts | 186° |
| 2026-04-27 05:52 | 25.35251 | 113.05114 | 36037 ft | 473 kts | 186° |
| 2026-04-27 05:52 | 25.28621 | 113.04951 | 36031 ft | 473 kts | 186° |
| 2026-04-27 05:52 | 25.26332 | 113.04895 | 35929 ft | 467 kts | 186° |
| 2026-04-27 05:53 | 25.24155 | 113.04842 | 35465 ft | 465 kts | 186° |
| 2026-04-27 05:53 | 25.21694 | 113.04780 | 34701 ft | 467 kts | 186° |
| 2026-04-27 05:53 | 25.18682 | 113.04704 | 33884 ft | 468 kts | 186° |
| 2026-04-27 05:53 | 25.15447 | 113.04623 | 33077 ft | 468 kts | 185° |
| 2026-04-27 05:54 | 25.12106 | 113.04535 | 32295 ft | 491 kts | 185° |
| 2026-04-27 05:54 | 25.08640 | 113.04446 | 31392 ft | 498 kts | 185° |
| 2026-04-27 05:54 | 25.05184 | 113.04359 | 30526 ft | 498 kts | 185° |
| 2026-04-27 05:54 | 25.01726 | 113.04275 | 30045 ft | 490 kts | 185° |
| 2026-04-27 05:55 | 24.98321 | 113.04192 | 29573 ft | 486 kts | 184° |
| 2026-04-27 05:55 | 24.94969 | 113.04108 | 29018 ft | 485 kts | 185° |
| 2026-04-27 05:55 | 24.91575 | 113.04023 | 28433 ft | 484 kts | 184° |
| 2026-04-27 05:55 | 24.88336 | 113.03942 | 27860 ft | 480 kts | 185° |
| 2026-04-27 05:56 | 24.84989 | 113.03859 | 27268 ft | 475 kts | 185° |
| 2026-04-27 05:56 | 24.81642 | 113.03776 | 26664 ft | 470 kts | 184° |
| 2026-04-27 05:56 | 24.78498 | 113.03698 | 26098 ft | 464 kts | 184° |
| 2026-04-27 05:56 | 24.75283 | 113.03618 | 25501 ft | 459 kts | 185° |
| 2026-04-27 05:57 | 24.72090 | 113.03538 | 24908 ft | 454 kts | 185° |
| 2026-04-27 05:57 | 24.68942 | 113.03459 | 24327 ft | 448 kts | 184° |
| 2026-04-27 05:57 | 24.65824 | 113.03381 | 23728 ft | 442 kts | 185° |
| 2026-04-27 05:57 | 24.62730 | 113.03304 | 23131 ft | 437 kts | 184° |
| 2026-04-27 05:58 | 24.59679 | 113.03228 | 22554 ft | 432 kts | 185° |
| 2026-04-27 05:58 | 24.56680 | 113.03153 | 22009 ft | 427 kts | 185° |
| 2026-04-27 05:58 | 24.53735 | 113.03080 | 21424 ft | 422 kts | 184° |
| 2026-04-27 05:58 | 24.50787 | 113.03005 | 20815 ft | 417 kts | 184° |
| 2026-04-27 05:59 | 24.47897 | 113.02947 | 20249 ft | 413 kts | 181° |
| 2026-04-27 05:59 | 24.45052 | 113.03252 | 19682 ft | 412 kts | 172° |
| 2026-04-27 05:59 | 24.42265 | 113.03947 | 19105 ft | 409 kts | 169° |
| 2026-04-27 05:59 | 24.39514 | 113.04692 | 18521 ft | 406 kts | 168° |
| 2026-04-27 06:00 | 24.34032 | 113.05891 | 17366 ft | 397 kts | 173° |
| 2026-04-27 06:00 | 24.31311 | 113.06390 | 16795 ft | 394 kts | 173° |
| 2026-04-27 06:00 | 24.28608 | 113.06892 | 16207 ft | 391 kts | 172° |
| 2026-04-27 06:01 | 24.25953 | 113.07388 | 15634 ft | 387 kts | 172° |
| 2026-04-27 06:01 | 24.23296 | 113.07890 | 15070 ft | 383 kts | 172° |
| 2026-04-27 06:01 | 24.20660 | 113.08388 | 14513 ft | 379 kts | 173° |
| 2026-04-27 06:01 | 24.18083 | 113.08878 | 13965 ft | 375 kts | 173° |
| 2026-04-27 06:02 | 24.15528 | 113.09364 | 13413 ft | 371 kts | 173° |
| 2026-04-27 06:02 | 24.12992 | 113.09847 | 12852 ft | 367 kts | 173° |
| 2026-04-27 06:02 | 24.10502 | 113.10323 | 12311 ft | 363 kts | 173° |
| 2026-04-27 06:02 | 24.08022 | 113.10799 | 11932 ft | 354 kts | 173° |
| 2026-04-27 06:03 | 24.05630 | 113.11259 | 11841 ft | 338 kts | 173° |
| 2026-04-27 06:03 | 24.03362 | 113.11695 | 11744 ft | 322 kts | 173° |
| 2026-04-27 06:03 | 24.01308 | 113.12089 | 11648 ft | 310 kts | 173° |
| 2026-04-27 06:03 | 23.99498 | 113.12436 | 11528 ft | 299 kts | 173° |
| 2026-04-27 06:04 | 23.97617 | 113.12796 | 11424 ft | 289 kts | 173° |
| 2026-04-27 06:04 | 23.95677 | 113.13168 | 11301 ft | 278 kts | 173° |
| 2026-04-27 06:04 | 23.93786 | 113.13530 | 11163 ft | 268 kts | 173° |
| 2026-04-27 06:04 | 23.91954 | 113.13879 | 10780 ft | 269 kts | 173° |
| 2026-04-27 06:05 | 23.90103 | 113.14233 | 10353 ft | 271 kts | 173° |
| 2026-04-27 06:05 | 23.88349 | 113.14568 | 10064 ft | 269 kts | 172° |
| 2026-04-27 06:05 | 23.86527 | 113.15085 | 9721 ft | 271 kts | 156° |
| 2026-04-27 06:05 | 23.85060 | 113.16406 | 9323 ft | 278 kts | 127° |
| 2026-04-27 06:06 | 23.84254 | 113.18310 | 9201 ft | 271 kts | 111° |
| 2026-04-27 06:06 | 23.83750 | 113.20265 | 8974 ft | 268 kts | 108° |
| 2026-04-27 06:06 | 23.83298 | 113.22241 | 8732 ft | 264 kts | 107° |
| 2026-04-27 06:06 | 23.82865 | 113.24152 | 8585 ft | 256 kts | 108° |
| 2026-04-27 06:07 | 23.82436 | 113.26028 | 8326 ft | 255 kts | 108° |
| 2026-04-27 06:07 | 23.82005 | 113.27907 | 8051 ft | 254 kts | 107° |
| 2026-04-27 06:07 | 23.81580 | 113.29763 | 7766 ft | 253 kts | 108° |
| 2026-04-27 06:07 | 23.81153 | 113.31626 | 7533 ft | 250 kts | 107° |
| 2026-04-27 06:08 | 23.80830 | 113.33032 | 7320 ft | 249 kts | 108° |
| 2026-04-27 06:08 | 23.80410 | 113.34862 | 7074 ft | 247 kts | 107° |
| 2026-04-27 06:08 | 23.79993 | 113.36677 | 6802 ft | 246 kts | 107° |
| 2026-04-27 06:08 | 23.79583 | 113.38462 | 6711 ft | 235 kts | 108° |
| 2026-04-27 06:09 | 23.78915 | 113.40003 | 6622 ft | 218 kts | 135° |
| 2026-04-27 06:09 | 23.77681 | 113.40942 | 6534 ft | 218 kts | 162° |
| 2026-04-27 06:09 | 23.76217 | 113.41148 | 6340 ft | 209 kts | 183° |
| 2026-04-27 06:09 | 23.74766 | 113.40957 | 6111 ft | 210 kts | 192° |
| 2026-04-27 06:10 | 23.73326 | 113.40594 | 5868 ft | 211 kts | 193° |
| 2026-04-27 06:10 | 23.71913 | 113.40215 | 5784 ft | 207 kts | 194° |
| 2026-04-27 06:10 | 23.70502 | 113.39829 | 5740 ft | 209 kts | 194° |
| 2026-04-27 06:10 | 23.69069 | 113.39433 | 5542 ft | 210 kts | 194° |
| 2026-04-27 06:11 | 23.67670 | 113.39047 | 5297 ft | 207 kts | 193° |
| 2026-04-27 06:11 | 23.66268 | 113.38661 | 5047 ft | 204 kts | 193° |
| 2026-04-27 06:11 | 23.64910 | 113.38290 | 4799 ft | 200 kts | 193° |
| 2026-04-27 06:11 | 23.63564 | 113.37924 | 4552 ft | 197 kts | 192° |
| 2026-04-27 06:12 | 23.62231 | 113.37564 | 4295 ft | 194 kts | 192° |
| 2026-04-27 06:12 | 23.60922 | 113.37212 | 4043 ft | 193 kts | 192° |
| 2026-04-27 06:12 | 23.59614 | 113.36861 | 3791 ft | 191 kts | 192° |
| 2026-04-27 06:12 | 23.58318 | 113.36513 | 3542 ft | 195 kts | 192° |
| 2026-04-27 06:13 | 23.56994 | 113.36158 | 3278 ft | 194 kts | 192° |
| 2026-04-27 06:13 | 23.55707 | 113.35811 | 3019 ft | 187 kts | 192° |
| 2026-04-27 06:13 | 23.54457 | 113.35474 | 2780 ft | 182 kts | 191° |
| 2026-04-27 06:13 | 23.53353 | 113.35177 | 2580 ft | 171 kts | 191° |
| 2026-04-27 06:14 | 23.52233 | 113.34875 | 2340 ft | 163 kts | 191° |
| 2026-04-27 06:14 | 23.51120 | 113.34577 | 2132 ft | 162 kts | 191° |
| 2026-04-27 06:14 | 23.50030 | 113.34283 | 1914 ft | 157 kts | 191° |
| 2026-04-27 06:14 | 23.49026 | 113.34013 | 1728 ft | 145 kts | 191° |
| 2026-04-27 06:15 | 23.48035 | 113.33748 | 1536 ft | 144 kts | 191° |
| 2026-04-27 06:15 | 23.47055 | 113.33485 | 1349 ft | 144 kts | 191° |
| 2026-04-27 06:15 | 23.46077 | 113.33221 | 1152 ft | 145 kts | 191° |
| 2026-04-27 06:15 | 23.45092 | 113.32958 | 958 ft | 144 kts | 192° |
| 2026-04-27 06:16 | 23.44119 | 113.32695 | 770 ft | 144 kts | 192° |
| 2026-04-27 06:16 | 23.43136 | 113.32433 | 595 ft | 145 kts | 192° |
| 2026-04-27 06:16 | 23.42154 | 113.32166 | 407 ft | 145 kts | 192° |
| 2026-04-27 06:16 | 23.41159 | 113.31902 | 246 ft | 145 kts | 192° |
| 2026-04-27 06:17 | 23.40180 | 113.31637 | 82 ft | 145 kts | 193° |
| 2026-04-27 06:17 | 23.39269 | 113.31395 | 58 ft | 110 kts | 193° |
| 2026-04-27 06:17 | 23.38752 | 113.31257 | 58 ft | 44 kts | 193° |
| 2026-04-27 06:17 | 23.38542 | 113.31242 | 58 ft | 27 kts | 171° |
| 2026-04-27 06:18 | 23.38377 | 113.31286 | 58 ft | 22 kts | 165° |
| 2026-04-27 06:18 | 23.38232 | 113.31312 | 58 ft | 20 kts | 182° |
| 2026-04-27 06:18 | 23.38096 | 113.31280 | 58 ft | 18 kts | 194° |
| 2026-04-27 06:18 | 23.37974 | 113.31248 | 58 ft | 17 kts | 193° |
| 2026-04-27 06:19 | 23.37861 | 113.31219 | 58 ft | 15 kts | 193° |
| 2026-04-27 06:19 | 23.37757 | 113.31190 | 58 ft | 14 kts | 194° |
| 2026-04-27 06:19 | 23.37662 | 113.31163 | 58 ft | 13 kts | 195° |
| 2026-04-27 06:19 | 23.37570 | 113.31139 | 58 ft | 14 kts | 194° |
| 2026-04-27 06:20 | 23.37459 | 113.31109 | 58 ft | 16 kts | 194° |
| 2026-04-27 06:20 | 23.37380 | 113.31107 | 58 ft | 9 kts | 142° |
| 2026-04-27 06:20 | 23.37355 | 113.31171 | 58 ft | 9 kts | 104° |
| 2026-04-27 06:20 | 23.37345 | 113.31204 | 58 ft | 7 kts | 113° |
| 2026-04-27 06:21 | 23.37314 | 113.31240 | 58 ft | 6 kts | 151° |
| 2026-04-27 06:21 | 23.37271 | 113.31259 | 58 ft | 6 kts | 160° |
| 2026-04-27 06:22 | 23.37228 | 113.31276 | 58 ft | 6 kts | 160° |
| 2026-04-27 06:22 | 23.37186 | 113.31288 | 58 ft | 5 kts | 179° |
| 2026-04-27 06:22 | 23.37147 | 113.31295 | 58 ft | 5 kts | 148° |
| 2026-04-27 06:22 | 23.37125 | 113.31326 | 58 ft | 5 kts | 119° |
| 2026-04-27 06:23 | 23.37109 | 113.31363 | 58 ft | 5 kts | 113° |
| 2026-04-27 06:23 | 23.37102 | 113.31382 | 58 ft | 0 kts | 112° |
| 2026-04-27 06:23 | 23.37101 | 113.31385 | 58 ft | 0 kts | 112° |